sensor_id;sensor_type;location;lat;lon;timestamp;pressure;altitude;pressure_sealevel;temperature;humidity
68199;BME280;55021;51.554;17.044;2023-02-19T00:10:11;100379.63;;;6.71;81.60
68199;BME280;55021;51.554;17.044;2023-02-19T00:25:14;100365.56;;;6.88;79.92
68199;BME280;55021;51.554;17.044;2023-02-19T00:40:17;100369.19;;;6.57;82.69
68199;BME280;55021;51.554;17.044;2023-02-19T00:55:19;100315.22;;;6.69;80.56
68199;BME280;55021;51.554;17.044;2023-02-19T01:10:22;100332.75;;;6.94;81.11
68199;BME280;55021;51.554;17.044;2023-02-19T01:25:24;100320.03;;;6.24;83.79
68199;BME280;55021;51.554;17.044;2023-02-19T01:40:27;100297.91;;;6.62;82.26
68199;BME280;55021;51.554;17.044;2023-02-19T01:55:30;100282.16;;;6.28;84.62
68199;BME280;55021;51.554;17.044;2023-02-19T02:10:33;100266.78;;;6.90;81.78
68199;BME280;55021;51.554;17.044;2023-02-19T02:25:54;100236.63;;;6.86;82.11
68199;BME280;55021;51.554;17.044;2023-02-19T02:41:01;100218.91;;;6.74;82.59
68199;BME280;55021;51.554;17.044;2023-02-19T02:56:04;100210.09;;;6.72;82.06
68199;BME280;55021;51.554;17.044;2023-02-19T03:11:09;100216.63;;;7.19;79.89
68199;BME280;55021;51.554;17.044;2023-02-19T03:26:13;100175.09;;;6.93;79.63
68199;BME280;55021;51.554;17.044;2023-02-19T03:41:24;100170.69;;;6.82;80.84
68199;BME280;55021;51.554;17.044;2023-02-19T03:56:33;100192.69;;;7.16;79.44
68199;BME280;55021;51.554;17.044;2023-02-19T04:11:38;100176.69;;;7.24;79.25
68199;BME280;55021;51.554;17.044;2023-02-19T04:26:41;100186.28;;;7.08;80.54
68199;BME280;55021;51.554;17.044;2023-02-19T04:41:45;100173.66;;;6.49;82.80
68199;BME280;55021;51.554;17.044;2023-02-19T04:56:47;100195.00;;;6.00;85.01
68199;BME280;55021;51.554;17.044;2023-02-19T05:11:50;100180.69;;;5.58;86.56
68199;BME280;55021;51.554;17.044;2023-02-19T05:26:52;100155.69;;;5.37;85.50
68199;BME280;55021;51.554;17.044;2023-02-19T05:41:55;100187.44;;;5.52;85.71
68199;BME280;55021;51.554;17.044;2023-02-19T05:56:58;100203.25;;;4.81;86.48
68199;BME280;55021;51.554;17.044;2023-02-19T06:12:00;100217.16;;;4.75;87.57
68199;BME280;55021;51.554;17.044;2023-02-19T06:27:04;100233.81;;;4.67;87.08
68199;BME280;55021;51.554;17.044;2023-02-19T06:42:06;100168.88;;;3.75;86.25
68199;BME280;55021;51.554;17.044;2023-02-19T06:57:09;100222.50;;;4.41;85.65
68199;BME280;55021;51.554;17.044;2023-02-19T07:12:11;100290.94;;;4.68;86.37
68199;BME280;55021;51.554;17.044;2023-02-19T07:27:14;100153.50;;;4.12;85.78
68199;BME280;55021;51.554;17.044;2023-02-19T07:42:16;100219.53;;;4.00;86.92
68199;BME280;55021;51.554;17.044;2023-02-19T07:57:19;100258.22;;;3.96;85.64
68199;BME280;55021;51.554;17.044;2023-02-19T08:12:21;100354.47;;;4.09;80.63
68199;BME280;55021;51.554;17.044;2023-02-19T08:27:24;100353.13;;;4.38;81.69
68199;BME280;55021;51.554;17.044;2023-02-19T08:42:27;100349.22;;;4.31;82.40
68199;BME280;55021;51.554;17.044;2023-02-19T08:57:29;100383.75;;;4.58;82.48
68199;BME280;55021;51.554;17.044;2023-02-19T09:12:32;100401.97;;;4.98;79.27
68199;BME280;55021;51.554;17.044;2023-02-19T09:27:34;100399.81;;;4.58;80.34
68199;BME280;55021;51.554;17.044;2023-02-19T09:42:39;100444.22;;;4.95;79.54
68199;BME280;55021;51.554;17.044;2023-02-19T09:57:43;100476.22;;;5.20;78.99
68199;BME280;55021;51.554;17.044;2023-02-19T10:12:48;100502.19;;;5.31;76.28
68199;BME280;55021;51.554;17.044;2023-02-19T10:27:51;100497.22;;;4.57;75.01
68199;BME280;55021;51.554;17.044;2023-02-19T10:42:56;100571.59;;;5.00;73.26
68199;BME280;55021;51.554;17.044;2023-02-19T10:58:20;100573.38;;;5.24;75.14
68199;BME280;55021;51.554;17.044;2023-02-19T11:13:26;100562.72;;;5.11;74.61
68199;BME280;55021;51.554;17.044;2023-02-19T11:28:35;100598.34;;;5.13;73.33
68199;BME280;55021;51.554;17.044;2023-02-19T11:43:47;100597.13;;;5.74;71.25
68199;BME280;55021;51.554;17.044;2023-02-19T11:59:02;100608.25;;;5.69;67.03
68199;BME280;55021;51.554;17.044;2023-02-19T12:29:49;100644.63;;;5.74;66.61
68199;BME280;55021;51.554;17.044;2023-02-19T12:44:56;100650.00;;;5.39;67.03
68199;BME280;55021;51.554;17.044;2023-02-19T13:00:03;100595.72;;;5.00;65.96
68199;BME280;55021;51.554;17.044;2023-02-19T13:15:14;100687.50;;;5.51;64.37
68199;BME280;55021;51.554;17.044;2023-02-19T13:30:36;100699.06;;;5.52;64.79
68199;BME280;55021;51.554;17.044;2023-02-19T13:45:43;100707.78;;;5.32;65.45
68199;BME280;55021;51.554;17.044;2023-02-19T14:00:49;100711.50;;;6.22;64.18
68199;BME280;55021;51.554;17.044;2023-02-19T14:15:53;100715.44;;;5.95;65.04
68199;BME280;55021;51.554;17.044;2023-02-19T14:30:58;100758.38;;;5.36;65.43
68199;BME280;55021;51.554;17.044;2023-02-19T14:46:06;100784.22;;;5.14;65.91
68199;BME280;55021;51.554;17.044;2023-02-19T15:01:26;100792.69;;;5.91;63.13
68199;BME280;55021;51.554;17.044;2023-02-19T15:16:30;100801.00;;;5.64;63.13
68199;BME280;55021;51.554;17.044;2023-02-19T15:31:34;100811.63;;;4.81;64.29
68199;BME280;55021;51.554;17.044;2023-02-19T15:46:37;100795.69;;;4.67;65.17
68199;BME280;55021;51.554;17.044;2023-02-19T16:01:39;100858.50;;;4.50;66.42
68199;BME280;55021;51.554;17.044;2023-02-19T16:16:44;100864.91;;;4.60;67.77
68199;BME280;55021;51.554;17.044;2023-02-19T16:31:50;100864.69;;;4.63;65.22
68199;BME280;55021;51.554;17.044;2023-02-19T16:46:56;100938.03;;;5.00;64.96
68199;BME280;55021;51.554;17.044;2023-02-19T17:02:02;100961.16;;;4.51;66.17
68199;BME280;55021;51.554;17.044;2023-02-19T17:17:05;100881.78;;;3.83;66.28
68199;BME280;55021;51.554;17.044;2023-02-19T17:32:12;100903.72;;;4.15;65.99
68199;BME280;55021;51.554;17.044;2023-02-19T17:47:15;100991.19;;;4.29;66.17
68199;BME280;55021;51.554;17.044;2023-02-19T18:02:18;100965.75;;;3.40;68.85
68199;BME280;55021;51.554;17.044;2023-02-19T18:17:20;100970.78;;;3.45;67.90
68199;BME280;55021;51.554;17.044;2023-02-19T18:32:24;100999.19;;;3.33;67.25
68199;BME280;55021;51.554;17.044;2023-02-19T18:47:30;101106.28;;;3.88;67.30
68199;BME280;55021;51.554;17.044;2023-02-19T19:02:36;101123.38;;;4.00;66.83
68199;BME280;55021;51.554;17.044;2023-02-19T19:17:39;101038.75;;;2.98;68.39
68199;BME280;55021;51.554;17.044;2023-02-19T19:32:41;100986.13;;;2.25;69.72
68199;BME280;55021;51.554;17.044;2023-02-19T19:47:44;101161.88;;;3.55;68.22
68199;BME280;55021;51.554;17.044;2023-02-19T20:02:47;101170.69;;;3.27;69.40
68199;BME280;55021;51.554;17.044;2023-02-19T20:17:50;101171.72;;;2.95;70.80
68199;BME280;55021;51.554;17.044;2023-02-19T20:32:52;101124.56;;;2.62;71.00
68199;BME280;55021;51.554;17.044;2023-02-19T20:47:55;101148.69;;;2.77;71.29
68199;BME280;55021;51.554;17.044;2023-02-19T21:02:57;101203.00;;;2.77;71.75
68199;BME280;55021;51.554;17.044;2023-02-19T21:18:00;101219.53;;;2.68;71.16
68199;BME280;55021;51.554;17.044;2023-02-19T21:33:03;101209.78;;;2.51;70.62
68199;BME280;55021;51.554;17.044;2023-02-19T21:48:06;101251.84;;;2.63;70.11
68199;BME280;55021;51.554;17.044;2023-02-19T22:03:13;101258.78;;;2.83;69.46
68199;BME280;55021;51.554;17.044;2023-02-19T22:18:16;101253.16;;;2.56;69.50
68199;BME280;55021;51.554;17.044;2023-02-19T22:33:18;101276.50;;;2.68;69.70
68199;BME280;55021;51.554;17.044;2023-02-19T22:48:21;101263.91;;;2.70;68.90
68199;BME280;55021;51.554;17.044;2023-02-19T23:03:24;101262.72;;;2.28;70.65
68199;BME280;55021;51.554;17.044;2023-02-19T23:18:27;101197.28;;;1.54;71.76
68199;BME280;55021;51.554;17.044;2023-02-19T23:33:30;101160.72;;;1.73;71.08
68199;BME280;55021;51.554;17.044;2023-02-19T23:48:34;101261.75;;;1.96;71.95
